createdAt,value
2022-10-24T00:08:10.370Z,99121.19
2022-10-24T00:17:45.364Z,99126.19
2022-10-24T00:27:18.996Z,99137.63
2022-10-24T00:36:51.074Z,99121.63
2022-10-24T00:46:26.675Z,99126.16
2022-10-24T00:55:59.003Z,99107.05
2022-10-24T01:05:34.430Z,99110.68
2022-10-24T01:15:08.498Z,99082.63
2022-10-24T01:24:40.908Z,99084.20
2022-10-24T01:34:15.075Z,99090.77
2022-10-24T01:43:49.439Z,99074.79
2022-10-24T01:53:24.790Z,99071.05
2022-10-24T02:02:58.073Z,99067.54
2022-10-24T02:12:33.836Z,99077.92
2022-10-24T02:22:06.352Z,99085.72
2022-10-24T02:31:40.409Z,99068.44
2022-10-24T02:41:15.838Z,99076.22
2022-10-24T02:50:48.685Z,99061.23
2022-10-24T03:00:23.368Z,99048.08
2022-10-24T03:09:57.736Z,99042.70
2022-10-24T03:19:33.614Z,99053.34
2022-10-24T03:29:06.214Z,99060.69
2022-10-24T03:38:39.871Z,99083.83
2022-10-24T03:48:13.489Z,99078.25
2022-10-24T03:57:48.257Z,99069.52
2022-10-24T04:07:25.118Z,99064.00
2022-10-24T04:16:57.193Z,99063.19
2022-10-24T04:26:32.508Z,99072.28
2022-10-24T04:36:07.239Z,99066.75
2022-10-24T04:45:41.645Z,99052.22
2022-10-24T04:55:15.658Z,99058.41
2022-10-24T05:04:48.692Z,99067.84
2022-10-24T05:14:22.991Z,99074.07
2022-10-24T05:23:56.781Z,99069.48
2022-10-24T05:33:29.055Z,99084.50
2022-10-24T05:43:03.637Z,99081.36
2022-10-24T05:52:37.504Z,99087.30
2022-10-24T06:02:11.548Z,99089.06
2022-10-24T06:11:45.366Z,99103.01
2022-10-24T06:21:19.708Z,99114.35
2022-10-24T06:30:54.092Z,99102.38
2022-10-24T06:40:29.875Z,99100.16
2022-10-24T06:50:03.097Z,99096.30
2022-10-24T06:59:39.481Z,99093.53
2022-10-24T07:09:14.306Z,99085.91
2022-10-24T07:18:46.314Z,99105.08
2022-10-24T07:28:19.851Z,99108.11
2022-10-24T07:37:54.434Z,99120.00
2022-10-24T07:47:27.962Z,99134.21
2022-10-24T07:57:02.208Z,99135.09
2022-10-24T08:06:35.786Z,99132.85
2022-10-24T08:16:11.541Z,99125.26
2022-10-24T08:25:45.656Z,99119.20
2022-10-24T08:35:18.358Z,99112.30
2022-10-24T08:44:54.375Z,99110.60
2022-10-24T08:54:28.809Z,99116.98
2022-10-24T09:04:00.979Z,99120.72
2022-10-24T09:13:36.615Z,99122.84
2022-10-24T09:14:39.011Z,99113.44
2022-10-24T09:15:42.513Z,99117.47
2022-10-24T09:16:45.917Z,99113.20
2022-10-24T09:17:48.583Z,99113.25
2022-10-24T09:18:52.391Z,99112.95
2022-10-24T09:19:56.375Z,99115.08
2022-10-24T09:29:27.409Z,99123.64
2022-10-24T09:30:31.471Z,99122.91
2022-10-24T09:31:32.365Z,99124.65
2022-10-24T09:32:36.477Z,99123.66
2022-10-24T09:33:38.789Z,99126.77
2022-10-24T09:34:41.253Z,99123.17
2022-10-24T09:35:45.353Z,99125.34
2022-10-24T09:36:47.709Z,99139.64
2022-10-24T09:37:51.443Z,99131.96
2022-10-24T09:38:54.529Z,99132.92
2022-10-24T09:39:57.903Z,99140.11
2022-10-24T09:41:00.311Z,99138.25
2022-10-24T09:42:02.755Z,99139.02
2022-10-24T09:43:05.193Z,99139.55
2022-10-24T09:44:07.692Z,99143.08
2022-10-24T09:45:12.727Z,99143.77
2022-10-24T09:46:16.617Z,99150.37
2022-10-24T09:48:24.511Z,99148.70
2022-10-24T09:49:25.032Z,99150.76
2022-10-24T09:50:28.982Z,99150.09
2022-10-24T09:51:31.312Z,99147.30
2022-10-24T09:52:34.026Z,99155.13
2022-10-24T09:53:38.048Z,99156.80
2022-10-24T09:54:40.306Z,99152.08
2022-10-24T09:55:44.328Z,99155.73
2022-10-24T09:56:48.245Z,99155.13
2022-10-24T10:06:20.923Z,99158.89
2022-10-24T10:07:23.333Z,99160.69
2022-10-24T10:08:25.791Z,99163.33
2022-10-24T10:09:28.227Z,99157.63
2022-10-24T10:10:32.324Z,99157.61
2022-10-24T10:11:40.525Z,99157.38
2022-10-24T10:12:38.016Z,99151.07
2022-10-24T10:13:40.449Z,99164.11
2022-10-24T10:14:44.554Z,99165.67
2022-10-24T10:24:16.125Z,99173.68
2022-10-24T10:25:18.695Z,99173.67
2022-10-24T10:26:21.310Z,99173.13
2022-10-24T10:27:24.552Z,99176.59
2022-10-24T10:28:26.939Z,99173.72
2022-10-24T10:29:29.417Z,99169.73
2022-10-24T10:30:31.886Z,99172.22
2022-10-24T10:31:35.386Z,99168.81
2022-10-24T10:32:39.463Z,99181.44
2022-10-24T10:33:42.051Z,99172.50
2022-10-24T10:34:44.494Z,99173.77
2022-10-24T10:35:47.252Z,99178.03
2022-10-24T10:36:49.548Z,99181.66
2022-10-24T10:37:52.039Z,99184.11
2022-10-24T10:38:56.095Z,99178.16
2022-10-24T10:48:29.466Z,99172.20
2022-10-24T10:49:33.412Z,99178.51
2022-10-24T10:50:35.759Z,99193.83
2022-10-24T10:51:38.243Z,99173.16
2022-10-24T10:52:40.707Z,99171.41
2022-10-24T10:53:44.808Z,99177.94
2022-10-24T10:54:47.116Z,99170.92
2022-10-24T10:55:49.592Z,99184.20
2022-10-24T10:56:53.681Z,99192.68
2022-10-24T10:57:56.056Z,99192.89
2022-10-24T10:58:58.502Z,99190.98
2022-10-24T11:00:02.541Z,99191.96
2022-10-24T11:01:05.032Z,99180.94
2022-10-24T11:02:07.510Z,99188.44
2022-10-24T11:03:09.890Z,99184.67
2022-10-24T11:04:12.409Z,99188.34
2022-10-24T11:05:16.524Z,99187.19
2022-10-24T11:06:18.805Z,99192.47
2022-10-24T11:07:21.249Z,99196.00
2022-10-24T11:08:23.765Z,99194.39
2022-10-24T11:09:26.220Z,99198.79
2022-10-24T11:10:30.433Z,99198.16
2022-10-24T11:11:32.698Z,99183.66
2022-10-24T11:12:35.207Z,99189.38
2022-10-24T11:13:37.717Z,99202.02
2022-10-24T11:14:40.238Z,99202.72
2022-10-24T11:15:42.704Z,99197.98
2022-10-24T11:16:45.149Z,99197.48
2022-10-24T11:17:47.976Z,99199.98
2022-10-24T11:18:50.091Z,99203.92
2022-10-24T11:19:52.549Z,99200.22
2022-10-24T11:20:55.084Z,99199.35
2022-10-24T11:21:59.174Z,99203.69
2022-10-24T11:23:03.104Z,99214.92
2022-10-24T11:24:06.055Z,99210.42
2022-10-24T11:25:07.987Z,99199.17
2022-10-24T11:26:10.504Z,99210.61
2022-10-24T11:27:12.998Z,99206.74
2022-10-24T11:28:15.415Z,99203.59
2022-10-24T11:29:17.928Z,99208.21
2022-10-24T11:30:20.416Z,99200.80
2022-10-24T11:31:22.879Z,99204.20
2022-10-24T11:32:27.966Z,99202.77
2022-10-24T11:33:30.256Z,99206.23
2022-10-24T11:34:32.723Z,99216.95
2022-10-24T11:35:35.241Z,99205.63
2022-10-24T11:36:37.658Z,99205.36
2022-10-24T11:37:41.727Z,99201.70
2022-10-24T11:38:44.066Z,99198.78
2022-10-24T11:39:47.537Z,99201.93
2022-10-24T11:40:51.652Z,99196.45
2022-10-24T11:41:52.454Z,99197.86
2022-10-24T11:42:56.487Z,99196.22
2022-10-24T11:44:00.446Z,99200.29
2022-10-24T11:45:02.847Z,99190.38
2022-10-24T11:46:05.304Z,99190.09
2022-10-24T11:47:09.368Z,99202.73
2022-10-24T11:48:13.414Z,99195.26
2022-10-24T11:49:15.700Z,99198.59
2022-10-24T11:50:20.586Z,99192.74
2022-10-24T11:51:22.231Z,99197.01
2022-10-24T11:52:26.218Z,99200.00
2022-10-24T11:53:28.566Z,99211.33
2022-10-24T11:54:31.030Z,99210.56
2022-10-24T11:55:35.097Z,99198.69
2022-10-24T11:56:37.443Z,99206.41
2022-10-24T11:57:39.972Z,99207.55
2022-10-24T11:58:42.454Z,99206.77
2022-10-24T11:59:44.910Z,99200.39
2022-10-24T12:00:48.966Z,99208.50
2022-10-24T12:01:51.321Z,99207.44
2022-10-24T12:02:53.782Z,99214.11
2022-10-24T12:03:57.840Z,99203.75
2022-10-24T12:05:00.155Z,99201.37
2022-10-24T12:06:02.703Z,99195.08
2022-10-24T12:07:05.078Z,99203.07
2022-10-24T12:08:09.217Z,99205.48
2022-10-24T12:09:11.528Z,99201.53
2022-10-24T12:10:14.018Z,99202.05
2022-10-24T12:11:16.479Z,99204.57
2022-10-24T12:12:18.984Z,99206.16
2022-10-24T12:13:23.081Z,99203.80
2022-10-24T12:14:27.033Z,99208.78
2022-10-24T12:15:29.332Z,99205.33
2022-10-24T12:16:33.431Z,99203.49
2022-10-24T12:17:35.841Z,99208.09
2022-10-24T12:18:39.893Z,99205.31
2022-10-24T12:19:42.202Z,99203.05
2022-10-24T12:20:44.688Z,99206.13
2022-10-24T12:21:47.167Z,99203.42
2022-10-24T12:22:49.665Z,99203.97
2022-10-24T12:23:52.108Z,99200.39
2022-10-24T12:24:54.615Z,99207.97
2022-10-24T12:25:57.081Z,99195.78
2022-10-24T12:26:59.547Z,99192.05
2022-10-24T12:28:02.080Z,99197.75
2022-10-24T12:29:06.184Z,99198.31
2022-10-24T12:30:08.475Z,99192.58
2022-10-24T12:31:10.944Z,99188.14
2022-10-24T12:32:13.398Z,99197.31
2022-10-24T12:33:15.903Z,99195.63
2022-10-24T12:34:20.034Z,99195.73
2022-10-24T12:35:30.227Z,99192.23
2022-10-24T12:36:24.794Z,99189.11
2022-10-24T12:37:28.851Z,99187.34
2022-10-24T12:38:32.803Z,99191.64
2022-10-24T12:39:35.144Z,99188.73
2022-10-24T12:40:37.606Z,99194.75
2022-10-24T12:41:41.661Z,99186.59
2022-10-24T12:42:45.889Z,99187.53
2022-10-24T12:43:47.932Z,99186.61
2022-10-24T12:44:52.035Z,99189.84
2022-10-24T12:45:54.363Z,99186.00
2022-10-24T12:46:56.884Z,99181.07
2022-10-24T12:47:59.347Z,99176.78
2022-10-24T12:49:01.815Z,99177.54
2022-10-24T12:50:04.255Z,99176.59
2022-10-24T12:51:06.673Z,99178.14
2022-10-24T12:52:09.191Z,99179.48
2022-10-24T12:53:11.691Z,99180.44
2022-10-24T12:54:14.148Z,99167.31
2022-10-24T12:55:16.596Z,99166.07
2022-10-24T12:57:21.546Z,99168.08
2022-10-24T12:58:24.022Z,99160.88
2022-10-24T12:59:26.501Z,99170.94
2022-10-24T13:00:29.063Z,99175.52
2022-10-24T13:01:32.671Z,99183.45
2022-10-24T13:02:36.587Z,99177.80
2022-10-24T13:03:38.935Z,99164.38
2022-10-24T13:04:41.488Z,99184.77
2022-10-24T13:05:43.830Z,99178.81
2022-10-24T13:06:46.403Z,99164.52
2022-10-24T13:07:50.533Z,99166.89
2022-10-24T13:08:51.229Z,99174.05
2022-10-24T13:09:55.344Z,99163.30
2022-10-24T13:10:59.358Z,99167.86
2022-10-24T13:12:01.688Z,99166.12
2022-10-24T13:13:04.162Z,99167.64
2022-10-24T13:14:08.193Z,99171.59
2022-10-24T13:15:12.111Z,99170.92
2022-10-24T13:16:16.023Z,99179.05
2022-10-24T13:17:18.311Z,99173.84
2022-10-24T13:18:20.819Z,99171.04
2022-10-24T13:19:25.108Z,99175.42
2022-10-24T13:20:27.461Z,99185.80
2022-10-24T13:21:29.957Z,99175.66
2022-10-24T13:22:32.386Z,99185.20
2022-10-24T13:23:34.861Z,99179.70
2022-10-24T13:24:37.320Z,99185.91
2022-10-24T13:25:39.784Z,99182.49
2022-10-24T13:26:43.920Z,99184.86
2022-10-24T13:27:46.248Z,99184.07
2022-10-24T13:28:50.271Z,99183.23
2022-10-24T13:29:52.641Z,99185.08
2022-10-24T13:30:55.114Z,99185.05
2022-10-24T13:31:59.129Z,99183.08
2022-10-24T13:33:03.068Z,99181.17
2022-10-24T13:34:05.419Z,99182.76
2022-10-24T13:35:09.581Z,99181.17
2022-10-24T13:36:11.942Z,99188.43
2022-10-24T13:37:14.384Z,99185.17
2022-10-24T13:38:16.919Z,99183.45
2022-10-24T13:39:20.908Z,99181.58
2022-10-24T13:40:24.780Z,99182.88
2022-10-24T13:41:27.171Z,99185.78
2022-10-24T13:42:32.919Z,99185.00
2022-10-24T13:43:36.110Z,99195.72
2022-10-24T13:44:40.095Z,99187.46
2022-10-24T13:45:43.966Z,99197.34
2022-10-24T13:46:47.842Z,99192.03
2022-10-24T13:47:48.832Z,99196.52
2022-10-24T13:48:51.274Z,99194.73
2022-10-24T13:49:53.704Z,99191.75
2022-10-24T13:50:57.801Z,99199.92
2022-10-24T13:52:00.162Z,99194.61
2022-10-24T13:53:02.645Z,99187.21
2022-10-24T13:54:05.120Z,99193.67
2022-10-24T13:55:07.629Z,99188.67
2022-10-24T13:56:10.050Z,99194.39
2022-10-24T13:57:12.570Z,99193.29
2022-10-24T13:58:15.059Z,99194.22
2022-10-24T13:59:19.152Z,99198.09
2022-10-24T14:00:21.563Z,99196.06
2022-10-24T14:01:24.128Z,99194.28
2022-10-24T14:02:28.347Z,99193.80
2022-10-24T14:03:30.627Z,99207.38
2022-10-24T14:04:33.006Z,99199.72
2022-10-24T14:05:35.473Z,99199.01
2022-10-24T14:06:37.924Z,99204.50
2022-10-24T14:07:40.429Z,99200.94
2022-10-24T14:08:42.911Z,99203.11
2022-10-24T14:09:47.085Z,99201.11
2022-10-24T14:10:49.348Z,99197.20
2022-10-24T14:11:51.839Z,99198.86
2022-10-24T14:12:55.952Z,99200.82
2022-10-24T14:14:00.347Z,99200.74
2022-10-24T14:15:02.350Z,99200.56
2022-10-24T14:16:06.286Z,99195.59
2022-10-24T14:17:08.666Z,99194.78
2022-10-24T14:18:11.151Z,99202.14
2022-10-24T14:19:15.465Z,99201.68
2022-10-24T14:20:16.168Z,99198.59
2022-10-24T14:21:18.595Z,99200.03
2022-10-24T14:22:22.662Z,99202.70
2022-10-24T14:23:24.992Z,99196.51
2022-10-24T14:24:27.470Z,99200.86
2022-10-24T14:25:29.970Z,99199.22
2022-10-24T14:26:32.480Z,99199.41
2022-10-24T14:27:34.949Z,99202.14
2022-10-24T14:28:37.480Z,99207.58
2022-10-24T14:29:39.896Z,99203.44
2022-10-24T14:30:42.403Z,99208.38
2022-10-24T14:31:46.463Z,99212.91
2022-10-24T14:32:48.829Z,99210.17
2022-10-24T14:33:52.883Z,99207.41
2022-10-24T14:34:55.241Z,99214.02
2022-10-24T14:35:59.340Z,99212.28
2022-10-24T14:37:01.703Z,99212.58
2022-10-24T14:38:08.903Z,99212.28
2022-10-24T14:39:08.175Z,99210.04
2022-10-24T14:40:10.647Z,99213.64
2022-10-24T14:41:13.104Z,99219.14
2022-10-24T14:42:17.186Z,99219.30
2022-10-24T14:44:23.694Z,99216.69
2022-10-24T14:45:26.019Z,99223.82
2022-10-24T14:46:28.493Z,99220.79
2022-10-24T14:47:32.552Z,99226.04
2022-10-24T14:48:34.963Z,99223.02
2022-10-24T14:49:37.469Z,99230.67
2022-10-24T14:50:39.948Z,99230.47
2022-10-24T14:51:42.491Z,99229.58
2022-10-24T14:52:45.315Z,99239.22
2022-10-24T14:53:47.606Z,99235.52
2022-10-24T14:54:50.028Z,99231.84
2022-10-24T14:55:52.491Z,99229.83
2022-10-24T14:56:55.986Z,99237.95
2022-10-24T14:57:58.328Z,99237.39
2022-10-24T14:59:00.823Z,99241.16
2022-10-24T15:00:05.023Z,99244.09
2022-10-24T15:01:07.337Z,99239.98
2022-10-24T15:02:09.814Z,99243.63
2022-10-24T15:03:13.839Z,99251.72
2022-10-24T15:04:16.158Z,99245.06
2022-10-24T15:05:18.622Z,99243.20
2022-10-24T15:06:21.026Z,99242.86
2022-10-24T15:07:23.471Z,99243.81
2022-10-24T15:08:25.927Z,99248.61
2022-10-24T15:09:30.082Z,99249.42
2022-10-24T15:10:32.371Z,99242.50
2022-10-24T15:11:34.894Z,99244.94
2022-10-24T15:12:37.360Z,99241.65
2022-10-24T15:13:39.789Z,99244.39
2022-10-24T15:14:42.223Z,99254.38
2022-10-24T15:15:44.656Z,99249.28
2022-10-24T15:16:48.755Z,99252.76
2022-10-24T15:17:51.184Z,99252.08
2022-10-24T15:18:53.650Z,99257.84
2022-10-24T15:19:56.126Z,99250.97
2022-10-24T15:20:58.587Z,99244.41
2022-10-24T15:22:01.080Z,99250.49
2022-10-24T15:23:03.485Z,99252.20
2022-10-24T15:24:05.968Z,99247.52
2022-10-24T15:25:08.576Z,99249.69
2022-10-24T15:26:10.966Z,99250.39
2022-10-24T15:27:13.419Z,99250.31
2022-10-24T15:28:15.897Z,99249.84
2022-10-24T15:29:18.403Z,99252.93
2022-10-24T15:30:20.891Z,99258.47
2022-10-24T15:31:23.330Z,99257.34
2022-10-24T15:32:25.803Z,99262.11
2022-10-24T15:33:28.192Z,99259.97
2022-10-24T15:34:32.253Z,99251.64
2022-10-24T15:35:34.513Z,99261.64
2022-10-24T15:36:38.594Z,99262.84
2022-10-24T15:37:40.923Z,99262.91
2022-10-24T15:38:43.430Z,99261.73
2022-10-24T15:39:45.849Z,99261.31
2022-10-24T15:40:48.340Z,99261.73
2022-10-24T15:41:52.599Z,99264.39
2022-10-24T15:42:54.790Z,99264.16
2022-10-24T15:43:57.197Z,99263.06
2022-10-24T15:45:01.240Z,99262.88
2022-10-24T15:46:05.190Z,99260.00
2022-10-24T15:47:07.604Z,99261.94
2022-10-24T15:48:10.075Z,99259.48
2022-10-24T15:49:12.529Z,99267.34
2022-10-24T15:50:15.031Z,99265.54
2022-10-24T15:51:17.454Z,99272.62
2022-10-24T15:52:21.495Z,99272.22
2022-10-24T16:01:51.920Z,99266.29
2022-10-24T16:02:54.312Z,99269.52
2022-10-24T16:03:58.375Z,99270.73
2022-10-24T16:05:00.752Z,99267.27
2022-10-24T16:06:03.247Z,99265.59
2022-10-24T16:08:09.664Z,99263.79
2022-10-24T16:17:43.897Z,99274.88
2022-10-24T16:27:18.654Z,99274.03
2022-10-24T16:36:49.423Z,99286.20
2022-10-24T16:46:22.928Z,99301.52
2022-10-24T16:55:57.452Z,99305.70
2022-10-24T17:05:31.340Z,99314.98
2022-10-24T17:15:04.269Z,99330.70
2022-10-24T17:24:37.078Z,99314.37
2022-10-24T17:34:11.109Z,99318.16
2022-10-24T17:43:43.430Z,99329.13
2022-10-24T17:53:17.867Z,99354.98
2022-10-24T18:02:52.330Z,99359.68
2022-10-24T18:12:26.718Z,99361.13
2022-10-24T18:22:00.817Z,99370.76
2022-10-24T18:31:36.393Z,99372.27
2022-10-24T18:41:08.644Z,99379.25
2022-10-24T18:50:42.597Z,99371.16
2022-10-24T19:00:17.202Z,99370.58
2022-10-24T19:09:52.960Z,99367.98
2022-10-24T19:19:24.946Z,99369.75
2022-10-24T19:29:02.245Z,99377.05
2022-10-24T19:38:35.708Z,99380.45
2022-10-24T19:48:09.132Z,99388.72
2022-10-24T19:57:41.223Z,99384.45
2022-10-24T20:07:14.828Z,99385.98
2022-10-24T20:16:48.834Z,99390.59
2022-10-24T20:26:22.702Z,99405.56
2022-10-24T20:35:56.264Z,99412.28
2022-10-24T20:45:31.958Z,99421.95
2022-10-24T20:55:07.490Z,99441.95
2022-10-24T21:04:39.351Z,99449.68
2022-10-24T21:14:11.460Z,99461.31
2022-10-24T21:23:45.654Z,99469.98
2022-10-24T21:33:21.457Z,99481.15
2022-10-24T21:42:55.191Z,99481.34
2022-10-24T21:52:27.317Z,99482.91
2022-10-24T22:02:01.902Z,99488.29
2022-10-24T22:11:37.623Z,99515.13
2022-10-24T22:21:09.862Z,99513.39
2022-10-24T22:30:45.271Z,99531.64
2022-10-24T22:40:19.418Z,99528.73
2022-10-24T22:49:53.541Z,99530.41
2022-10-24T22:59:25.687Z,99539.26
2022-10-24T23:08:59.414Z,99549.00
2022-10-24T23:18:35.093Z,99546.70
2022-10-24T23:28:09.161Z,99558.00
2022-10-24T23:37:43.090Z,99567.76
2022-10-24T23:47:17.101Z,99569.18
2022-10-24T23:56:51.144Z,99567.33
